sensor_id;sensor_type;location;lat;lon;timestamp;pressure;altitude;pressure_sealevel;temperature;humidity
29433;BME280;16405;53.964;13.448;2023-05-03T00:01:49;102182.88;;;2.80;86.71
29433;BME280;16405;53.964;13.448;2023-05-03T00:04:15;102188.94;;;2.79;86.95
29433;BME280;16405;53.964;13.448;2023-05-03T00:06:45;102192.38;;;2.78;86.98
29433;BME280;16405;53.964;13.448;2023-05-03T00:09:11;102190.66;;;2.77;87.39
29433;BME280;16405;53.964;13.448;2023-05-03T00:11:37;102190.66;;;2.77;87.26
29433;BME280;16405;53.964;13.448;2023-05-03T00:14:03;102190.63;;;2.74;87.61
29433;BME280;16405;53.964;13.448;2023-05-03T00:16:28;102190.63;;;2.74;87.88
29433;BME280;16405;53.964;13.448;2023-05-03T00:18:54;102185.41;;;2.72;88.05
29433;BME280;16405;53.964;13.448;2023-05-03T00:21:20;102191.47;;;2.73;88.23
29433;BME280;16405;53.964;13.448;2023-05-03T00:23:46;102195.81;;;2.72;88.05
29433;BME280;16405;53.964;13.448;2023-05-03T00:26:12;102187.13;;;2.72;87.85
29433;BME280;16405;53.964;13.448;2023-05-03T00:28:38;102187.13;;;2.72;88.15
29433;BME280;16405;53.964;13.448;2023-05-03T00:31:08;102187.09;;;2.69;88.26
29433;BME280;16405;53.964;13.448;2023-05-03T00:33:35;102190.56;;;2.66;88.46
29433;BME280;16405;53.964;13.448;2023-05-03T00:36:13;102187.97;;;2.66;88.35
29433;BME280;16405;53.964;13.448;2023-05-03T00:38:40;102188.78;;;2.63;88.69
29433;BME280;16405;53.964;13.448;2023-05-03T00:41:08;102186.19;;;2.62;88.54
29433;BME280;16405;53.964;13.448;2023-05-03T00:43:34;102188.75;;;2.60;88.71
29433;BME280;16405;53.964;13.448;2023-05-03T00:46:01;102185.28;;;2.58;88.79
29433;BME280;16405;53.964;13.448;2023-05-03T00:48:28;102185.25;;;2.57;88.79
29433;BME280;16405;53.964;13.448;2023-05-03T00:50:57;102189.56;;;2.55;88.77
29433;BME280;16405;53.964;13.448;2023-05-03T00:53:26;102174.81;;;2.51;88.69
29433;BME280;16405;53.964;13.448;2023-05-03T00:55:53;102178.22;;;2.48;88.71
29433;BME280;16405;53.964;13.448;2023-05-03T00:58:20;102172.97;;;2.43;89.13
29433;BME280;16405;53.964;13.448;2023-05-03T01:00:47;102178.16;;;2.40;88.58
29433;BME280;16405;53.964;13.448;2023-05-03T01:03:14;102179.00;;;2.36;88.92
29433;BME280;16405;53.964;13.448;2023-05-03T01:09:13;102185.84;;;2.30;89.01
29433;BME280;16405;53.964;13.448;2023-05-03T01:17:58;102190.06;;;2.20;89.19
29433;BME280;16405;53.964;13.448;2023-05-03T01:20:29;102190.06;;;2.18;89.42
29433;BME280;16405;53.964;13.448;2023-05-03T01:25:24;102190.88;;;2.16;89.89
29433;BME280;16405;53.964;13.448;2023-05-03T01:27:53;102196.97;;;2.16;89.94
29433;BME280;16405;53.964;13.448;2023-05-03T01:30:22;102193.47;;;2.14;90.46
29433;BME280;16405;53.964;13.448;2023-05-03T01:35:59;102203.81;;;2.11;90.09
29433;BME280;16405;53.964;13.448;2023-05-03T01:38:27;102205.53;;;2.09;90.48
29433;BME280;16405;53.964;13.448;2023-05-03T01:40:58;102205.53;;;2.09;90.68
29433;BME280;16405;53.964;13.448;2023-05-03T01:43:25;102211.59;;;2.08;90.57
29433;BME280;16405;53.964;13.448;2023-05-03T01:45:52;102215.03;;;2.07;90.92
29433;BME280;16405;53.964;13.448;2023-05-03T01:48:18;102216.78;;;2.08;90.64
29433;BME280;16405;53.964;13.448;2023-05-03T01:50:44;102216.75;;;2.07;90.81
29433;BME280;16405;53.964;13.448;2023-05-03T01:53:10;102214.16;;;2.07;91.00
29433;BME280;16405;53.964;13.448;2023-05-03T01:55:36;102215.88;;;2.04;91.08
29433;BME280;16405;53.964;13.448;2023-05-03T01:58:02;102218.47;;;2.04;91.30
29433;BME280;16405;53.964;13.448;2023-05-03T02:00:29;102213.22;;;2.03;91.25
29433;BME280;16405;53.964;13.448;2023-05-03T02:02:55;102217.56;;;2.02;91.20
29433;BME280;16405;53.964;13.448;2023-05-03T02:05:21;102214.06;;;2.00;91.37
29433;BME280;16405;53.964;13.448;2023-05-03T02:07:47;102212.31;;;1.98;91.43
29433;BME280;16405;53.964;13.448;2023-05-03T02:10:13;102214.03;;;1.97;91.41
29433;BME280;16405;53.964;13.448;2023-05-03T02:12:43;102214.03;;;1.96;91.75
29433;BME280;16405;53.964;13.448;2023-05-03T02:15:11;102220.09;;;1.95;91.67
29433;BME280;16405;53.964;13.448;2023-05-03T02:17:37;102221.78;;;1.93;91.66
29433;BME280;16405;53.964;13.448;2023-05-03T02:20:04;102225.22;;;1.90;91.81
29433;BME280;16405;53.964;13.448;2023-05-03T02:22:31;102226.94;;;1.88;91.78
29433;BME280;16405;53.964;13.448;2023-05-03T02:24:57;102218.25;;;1.86;92.00
29433;BME280;16405;53.964;13.448;2023-05-03T02:27:24;102219.94;;;1.85;92.06
29433;BME280;16405;53.964;13.448;2023-05-03T02:29:50;102219.06;;;1.85;91.87
29433;BME280;16405;53.964;13.448;2023-05-03T02:32:16;102224.25;;;1.83;92.14
29433;BME280;16405;53.964;13.448;2023-05-03T02:34:46;102226.00;;;1.84;92.32
29433;BME280;16405;53.964;13.448;2023-05-03T02:37:12;102222.50;;;1.82;92.20
29433;BME280;16405;53.964;13.448;2023-05-03T02:39:38;102229.47;;;1.85;92.55
29433;BME280;16405;53.964;13.448;2023-05-03T02:42:04;102231.19;;;1.84;92.57
29433;BME280;16405;53.964;13.448;2023-05-03T02:44:30;102235.53;;;1.85;92.69
29433;BME280;16405;53.964;13.448;2023-05-03T02:46:56;102232.06;;;1.85;93.01
29433;BME280;16405;53.964;13.448;2023-05-03T02:49:21;102238.13;;;1.85;93.14
29433;BME280;16405;53.964;13.448;2023-05-03T02:51:47;102236.41;;;1.84;93.05
29433;BME280;16405;53.964;13.448;2023-05-03T02:54:13;102238.09;;;1.82;93.15
29433;BME280;16405;53.964;13.448;2023-05-03T02:56:39;102248.44;;;1.81;93.12
29433;BME280;16405;53.964;13.448;2023-05-03T02:59:05;102252.75;;;1.79;93.29
29433;BME280;16405;53.964;13.448;2023-05-03T03:01:32;102244.09;;;1.78;93.13
29433;BME280;16405;53.964;13.448;2023-05-03T03:03:58;102250.16;;;1.77;93.57
29433;BME280;16405;53.964;13.448;2023-05-03T03:06:24;102251.03;;;1.78;93.48
29433;BME280;16405;53.964;13.448;2023-05-03T03:08:50;102249.28;;;1.78;93.50
29433;BME280;16405;53.964;13.448;2023-05-03T03:11:16;102251.88;;;1.78;93.74
29433;BME280;16405;53.964;13.448;2023-05-03T03:13:42;102249.28;;;1.78;93.95
29433;BME280;16405;53.964;13.448;2023-05-03T03:16:09;102244.06;;;1.77;94.07
29433;BME280;16405;53.964;13.448;2023-05-03T03:18:35;102243.19;;;1.76;93.96
29433;BME280;16405;53.964;13.448;2023-05-03T03:21:02;102246.66;;;1.77;93.98
29433;BME280;16405;53.964;13.448;2023-05-03T03:23:28;102244.97;;;1.77;93.82
29433;BME280;16405;53.964;13.448;2023-05-03T03:25:54;102250.16;;;1.77;93.98
29433;BME280;16405;53.964;13.448;2023-05-03T03:28:20;102246.69;;;1.78;93.95
29433;BME280;16405;53.964;13.448;2023-05-03T03:30:46;102244.09;;;1.78;94.04
29433;BME280;16405;53.964;13.448;2023-05-03T03:33:12;102254.50;;;1.80;93.84
29433;BME280;16405;53.964;13.448;2023-05-03T03:35:38;102251.94;;;1.81;94.01
29433;BME280;16405;53.964;13.448;2023-05-03T03:38:04;102255.41;;;1.83;93.49
29433;BME280;16405;53.964;13.448;2023-05-03T03:40:30;102266.69;;;1.85;93.56
29433;BME280;16405;53.964;13.448;2023-05-03T03:42:56;102260.69;;;1.90;93.38
29433;BME280;16405;53.964;13.448;2023-05-03T03:45:22;102263.34;;;1.93;93.30
29433;BME280;16405;53.964;13.448;2023-05-03T03:47:48;102265.16;;;1.98;93.44
29433;BME280;16405;53.964;13.448;2023-05-03T03:50:14;102259.16;;;2.04;93.17
29433;BME280;16405;53.964;13.448;2023-05-03T03:52:41;102266.19;;;2.10;93.18
29433;BME280;16405;53.964;13.448;2023-05-03T03:55:07;102261.94;;;2.18;93.12
29433;BME280;16405;53.964;13.448;2023-05-03T03:57:32;102265.53;;;2.28;92.78
29433;BME280;16405;53.964;13.448;2023-05-03T03:59:59;102276.13;;;2.44;92.69
29433;BME280;16405;53.964;13.448;2023-05-03T04:02:26;102277.16;;;2.57;91.92
29433;BME280;16405;53.964;13.448;2023-05-03T04:04:52;102281.56;;;2.67;91.74
29433;BME280;16405;53.964;13.448;2023-05-03T04:07:17;102279.09;;;2.77;90.95
29433;BME280;16405;53.964;13.448;2023-05-03T04:09:43;102293.47;;;3.26;90.13
29433;BME280;16405;53.964;13.448;2023-05-03T04:12:09;102298.28;;;3.95;89.12
29433;BME280;16405;53.964;13.448;2023-05-03T04:14:35;102309.97;;;4.83;87.25
29433;BME280;16405;53.964;13.448;2023-05-03T04:17:01;102326.53;;;6.13;84.08
29433;BME280;16405;53.964;13.448;2023-05-03T04:19:27;102333.47;;;7.76;79.33
29433;BME280;16405;53.964;13.448;2023-05-03T04:21:53;102343.78;;;9.35;74.22
29433;BME280;16405;53.964;13.448;2023-05-03T04:24:19;102358.63;;;10.82;68.91
29433;BME280;16405;53.964;13.448;2023-05-03T04:26:44;102365.00;;;12.19;63.67
29433;BME280;16405;53.964;13.448;2023-05-03T04:29:11;102378.97;;;13.43;60.42
29433;BME280;16405;53.964;13.448;2023-05-03T04:31:39;102381.19;;;14.59;56.99
29433;BME280;16405;53.964;13.448;2023-05-03T04:34:05;102387.59;;;15.66;53.92
29433;BME280;16405;53.964;13.448;2023-05-03T04:36:32;102401.13;;;16.63;51.90
29433;BME280;16405;53.964;13.448;2023-05-03T04:38:58;102410.97;;;17.55;49.74
29433;BME280;16405;53.964;13.448;2023-05-03T04:41:24;102419.88;;;18.43;47.86
29433;BME280;16405;53.964;13.448;2023-05-03T04:43:50;102440.03;;;19.31;45.85
29433;BME280;16405;53.964;13.448;2023-05-03T04:46:16;102453.94;;;20.14;44.27
29433;BME280;16405;53.964;13.448;2023-05-03T04:48:44;102449.28;;;20.91;42.85
29433;BME280;16405;53.964;13.448;2023-05-03T04:51:10;102464.66;;;21.58;41.60
29433;BME280;16405;53.964;13.448;2023-05-03T04:53:36;102472.25;;;22.18;40.45
29433;BME280;16405;53.964;13.448;2023-05-03T04:56:02;102486.47;;;22.84;39.34
29433;BME280;16405;53.964;13.448;2023-05-03T04:58:28;102498.53;;;23.41;38.49
29433;BME280;16405;53.964;13.448;2023-05-03T05:00:54;102505.25;;;24.08;37.61
29433;BME280;16405;53.964;13.448;2023-05-03T05:03:20;102513.28;;;24.79;36.41
29433;BME280;16405;53.964;13.448;2023-05-03T05:05:46;102523.09;;;25.36;35.62
29433;BME280;16405;53.964;13.448;2023-05-03T05:08:11;102528.50;;;25.91;34.50
29433;BME280;16405;53.964;13.448;2023-05-03T05:10:40;102543.00;;;26.95;34.53
29433;BME280;16405;53.964;13.448;2023-05-03T05:13:06;102541.59;;;27.22;33.27
29433;BME280;16405;53.964;13.448;2023-05-03T05:15:32;102547.78;;;27.43;32.35
29433;BME280;16405;53.964;13.448;2023-05-03T05:17:58;102562.94;;;27.75;31.99
29433;BME280;16405;53.964;13.448;2023-05-03T05:20:24;102533.88;;;25.36;34.42
29433;BME280;16405;53.964;13.448;2023-05-03T05:22:50;102570.41;;;26.80;32.65
29433;BME280;16405;53.964;13.448;2023-05-03T05:25:16;102583.81;;;27.44;32.05
29433;BME280;16405;53.964;13.448;2023-05-03T05:27:42;102600.34;;;28.20;31.58
29433;BME280;16405;53.964;13.448;2023-05-03T05:30:08;102609.03;;;28.62;30.83
29433;BME280;16405;53.964;13.448;2023-05-03T05:32:34;102615.66;;;28.97;30.02
29433;BME280;16405;53.964;13.448;2023-05-03T05:35:00;102619.09;;;29.47;29.48
29433;BME280;16405;53.964;13.448;2023-05-03T05:37:26;102627.03;;;29.85;28.91
29433;BME280;16405;53.964;13.448;2023-05-03T05:39:53;102635.88;;;30.33;28.36
29433;BME280;16405;53.964;13.448;2023-05-03T05:42:19;102636.75;;;30.60;27.96
29433;BME280;16405;53.964;13.448;2023-05-03T05:44:45;102650.16;;;30.79;27.92
29433;BME280;16405;53.964;13.448;2023-05-03T05:47:11;102659.59;;;31.11;27.62
29433;BME280;16405;53.964;13.448;2023-05-03T05:49:37;102668.13;;;31.42;27.39
29433;BME280;16405;53.964;13.448;2023-05-03T05:52:03;102677.59;;;31.64;27.21
29433;BME280;16405;53.964;13.448;2023-05-03T05:54:29;102678.41;;;31.99;26.70
29433;BME280;16405;53.964;13.448;2023-05-03T05:56:56;102695.50;;;32.34;26.58
29433;BME280;16405;53.964;13.448;2023-05-03T05:59:22;102689.78;;;32.54;26.24
29433;BME280;16405;53.964;13.448;2023-05-03T06:01:48;102689.72;;;32.45;26.06
29433;BME280;16405;53.964;13.448;2023-05-03T06:04:14;102699.22;;;32.08;26.40
29433;BME280;16405;53.964;13.448;2023-05-03T06:06:41;102692.28;;;31.80;26.48
29433;BME280;16405;53.964;13.448;2023-05-03T06:09:07;102695.91;;;31.54;26.80
29433;BME280;16405;53.964;13.448;2023-05-03T06:11:34;102704.28;;;31.61;26.62
29433;BME280;16405;53.964;13.448;2023-05-03T06:14:00;102706.53;;;31.13;26.82
29433;BME280;16405;53.964;13.448;2023-05-03T06:16:29;102706.19;;;31.08;27.22
29433;BME280;16405;53.964;13.448;2023-05-03T06:18:54;102712.47;;;31.09;27.35
29433;BME280;16405;53.964;13.448;2023-05-03T06:21:21;102711.44;;;31.10;27.52
29433;BME280;16405;53.964;13.448;2023-05-03T06:23:47;102710.31;;;31.20;27.22
29433;BME280;16405;53.964;13.448;2023-05-03T06:26:12;102718.84;;;30.99;27.24
29433;BME280;16405;53.964;13.448;2023-05-03T06:28:38;102695.59;;;28.45;29.22
29433;BME280;16405;53.964;13.448;2023-05-03T06:31:04;102663.72;;;26.20;32.05
29433;BME280;16405;53.964;13.448;2023-05-03T06:33:30;102663.66;;;25.54;32.78
29433;BME280;16405;53.964;13.448;2023-05-03T06:35:56;102646.97;;;25.37;33.42
29433;BME280;16405;53.964;13.448;2023-05-03T06:38:23;102648.94;;;25.69;33.24
29433;BME280;16405;53.964;13.448;2023-05-03T06:40:49;102651.22;;;25.06;33.58
29433;BME280;16405;53.964;13.448;2023-05-03T06:43:15;102631.25;;;24.38;34.91
29433;BME280;16405;53.964;13.448;2023-05-03T06:45:42;102638.50;;;24.73;34.58
29433;BME280;16405;53.964;13.448;2023-05-03T06:48:08;102642.16;;;26.09;33.62
29433;BME280;16405;53.964;13.448;2023-05-03T06:50:35;102608.72;;;22.77;36.58
29433;BME280;16405;53.964;13.448;2023-05-03T06:53:01;102590.38;;;22.17;38.50
29433;BME280;16405;53.964;13.448;2023-05-03T06:55:27;102615.44;;;23.72;36.58
29433;BME280;16405;53.964;13.448;2023-05-03T06:57:53;102610.53;;;22.64;37.54
29433;BME280;16405;53.964;13.448;2023-05-03T07:00:19;102583.88;;;20.02;39.54
29433;BME280;16405;53.964;13.448;2023-05-03T07:02:46;102576.38;;;20.09;41.55
29433;BME280;16405;53.964;13.448;2023-05-03T07:05:12;102599.69;;;22.25;38.86
29433;BME280;16405;53.964;13.448;2023-05-03T07:07:38;102598.16;;;22.07;38.29
29433;BME280;16405;53.964;13.448;2023-05-03T07:10:05;102588.53;;;21.34;38.96
29433;BME280;16405;53.964;13.448;2023-05-03T07:12:31;102580.09;;;20.97;40.03
29433;BME280;16405;53.964;13.448;2023-05-03T07:14:57;102600.00;;;22.73;38.37
29433;BME280;16405;53.964;13.448;2023-05-03T07:17:24;102592.66;;;22.50;38.29
29433;BME280;16405;53.964;13.448;2023-05-03T07:19:50;102616.09;;;24.37;36.00
29433;BME280;16405;53.964;13.448;2023-05-03T07:22:17;102626.25;;;24.45;35.38
29433;BME280;16405;53.964;13.448;2023-05-03T07:24:45;102630.91;;;25.25;33.93
29433;BME280;16405;53.964;13.448;2023-05-03T07:27:12;102622.16;;;24.28;34.88
29433;BME280;16405;53.964;13.448;2023-05-03T07:29:38;102598.53;;;23.08;36.46
29433;BME280;16405;53.964;13.448;2023-05-03T07:32:04;102586.34;;;21.97;37.58
29433;BME280;16405;53.964;13.448;2023-05-03T07:34:30;102587.41;;;22.48;37.66
29433;BME280;16405;53.964;13.448;2023-05-03T07:36:57;102599.47;;;23.45;35.53
29433;BME280;16405;53.964;13.448;2023-05-03T07:39:23;102619.47;;;24.52;34.50
29433;BME280;16405;53.964;13.448;2023-05-03T07:41:48;102611.16;;;24.07;35.21
29433;BME280;16405;53.964;13.448;2023-05-03T07:44:14;102583.47;;;21.85;36.27
29433;BME280;16405;53.964;13.448;2023-05-03T07:46:40;102568.63;;;21.09;39.36
29433;BME280;16405;53.964;13.448;2023-05-03T07:49:06;102576.66;;;22.61;37.63
29433;BME280;16405;53.964;13.448;2023-05-03T07:51:36;102593.06;;;24.09;36.19
29433;BME280;16405;53.964;13.448;2023-05-03T07:54:03;102587.56;;;23.24;35.14
29433;BME280;16405;53.964;13.448;2023-05-03T07:56:29;102556.50;;;20.59;37.96
29433;BME280;16405;53.964;13.448;2023-05-03T07:58:55;102556.16;;;20.49;38.81
29433;BME280;16405;53.964;13.448;2023-05-03T08:01:22;102550.63;;;21.12;38.61
29433;BME280;16405;53.964;13.448;2023-05-03T08:03:49;102562.25;;;22.09;37.98
29433;BME280;16405;53.964;13.448;2023-05-03T08:06:18;102567.97;;;22.45;37.67
29433;BME280;16405;53.964;13.448;2023-05-03T08:08:44;102565.66;;;22.26;37.11
29433;BME280;16405;53.964;13.448;2023-05-03T08:11:10;102561.28;;;22.10;36.83
29433;BME280;16405;53.964;13.448;2023-05-03T08:13:36;102553.00;;;21.16;37.77
29433;BME280;16405;53.964;13.448;2023-05-03T08:16:03;102551.41;;;21.42;38.49
29433;BME280;16405;53.964;13.448;2023-05-03T08:18:30;102559.53;;;22.24;37.05
29433;BME280;16405;53.964;13.448;2023-05-03T08:20:56;102557.63;;;22.11;37.19
29433;BME280;16405;53.964;13.448;2023-05-03T08:23:23;102550.81;;;21.37;37.25
29433;BME280;16405;53.964;13.448;2023-05-03T08:25:50;102523.13;;;19.74;40.10
29433;BME280;16405;53.964;13.448;2023-05-03T08:28:16;102513.72;;;18.34;41.96
29433;BME280;16405;53.964;13.448;2023-05-03T08:30:41;102516.88;;;18.93;42.55
29433;BME280;16405;53.964;13.448;2023-05-03T08:33:07;102523.19;;;19.73;41.18
29433;BME280;16405;53.964;13.448;2023-05-03T08:35:36;102532.22;;;20.32;39.99
29433;BME280;16405;53.964;13.448;2023-05-03T08:38:02;102534.16;;;20.75;39.46
29433;BME280;16405;53.964;13.448;2023-05-03T08:40:30;102531.03;;;21.11;39.20
29433;BME280;16405;53.964;13.448;2023-05-03T08:43:08;102547.66;;;21.30;38.79
29433;BME280;16405;53.964;13.448;2023-05-03T08:45:36;102545.97;;;20.26;40.04
29433;BME280;16405;53.964;13.448;2023-05-03T08:48:02;102513.22;;;18.43;41.20
29433;BME280;16405;53.964;13.448;2023-05-03T08:50:29;102505.03;;;17.94;43.51
29433;BME280;16405;53.964;13.448;2023-05-03T08:52:56;102491.16;;;17.49;43.88
29433;BME280;16405;53.964;13.448;2023-05-03T08:55:22;102491.63;;;17.40;45.46
29433;BME280;16405;53.964;13.448;2023-05-03T08:57:47;102502.75;;;17.67;45.35
29433;BME280;16405;53.964;13.448;2023-05-03T09:00:16;102494.25;;;16.83;42.88
29433;BME280;16405;53.964;13.448;2023-05-03T09:02:44;102491.44;;;16.86;47.14
29433;BME280;16405;53.964;13.448;2023-05-03T09:08:10;102487.25;;;17.20;46.81
29433;BME280;16405;53.964;13.448;2023-05-03T09:10:41;102487.72;;;16.70;46.23
29433;BME280;16405;53.964;13.448;2023-05-03T09:13:11;102480.97;;;15.99;47.42
29433;BME280;16405;53.964;13.448;2023-05-03T09:15:50;102480.16;;;16.40;48.25
29433;BME280;16405;53.964;13.448;2023-05-03T09:18:18;102485.47;;;16.40;46.74
29433;BME280;16405;53.964;13.448;2023-05-03T09:20:47;102491.63;;;15.77;46.59
29433;BME280;16405;53.964;13.448;2023-05-03T09:23:29;102487.31;;;15.51;46.50
29433;BME280;16405;53.964;13.448;2023-05-03T09:25:56;102487.25;;;15.53;47.24
29433;BME280;16405;53.964;13.448;2023-05-03T09:28:25;102488.97;;;15.54;47.63
29433;BME280;16405;53.964;13.448;2023-05-03T09:31:05;102491.84;;;15.93;48.26
29433;BME280;16405;53.964;13.448;2023-05-03T09:33:32;102488.44;;;16.32;46.86
29433;BME280;16405;53.964;13.448;2023-05-03T09:36:03;102491.28;;;16.69;46.88
29433;BME280;16405;53.964;13.448;2023-05-03T09:38:34;102496.22;;;17.17;46.71
29433;BME280;16405;53.964;13.448;2023-05-03T09:41:03;102497.47;;;16.69;45.95
29433;BME280;16405;53.964;13.448;2023-05-03T09:43:35;102497.97;;;15.73;45.66
29433;BME280;16405;53.964;13.448;2023-05-03T09:46:19;102487.69;;;15.42;47.62
29433;BME280;16405;53.964;13.448;2023-05-03T09:48:51;102478.75;;;15.21;47.70
29433;BME280;16405;53.964;13.448;2023-05-03T09:51:27;102494.69;;;15.89;47.11
29433;BME280;16405;53.964;13.448;2023-05-03T09:53:55;102497.59;;;16.46;47.00
29433;BME280;16405;53.964;13.448;2023-05-03T09:56:30;102497.94;;;16.79;45.75
29433;BME280;16405;53.964;13.448;2023-05-03T09:58:56;102496.72;;;17.07;45.54
29433;BME280;16405;53.964;13.448;2023-05-03T10:01:24;102510.81;;;17.47;45.60
29433;BME280;16405;53.964;13.448;2023-05-03T10:03:53;102508.44;;;17.78;43.42
29433;BME280;16405;53.964;13.448;2023-05-03T10:06:32;102514.00;;;18.10;42.97
29433;BME280;16405;53.964;13.448;2023-05-03T10:11:34;102501.69;;;16.54;44.33
29433;BME280;16405;53.964;13.448;2023-05-03T10:14:07;102494.44;;;16.58;44.94
29433;BME280;16405;53.964;13.448;2023-05-03T10:16:43;102501.25;;;16.43;43.29
29433;BME280;16405;53.964;13.448;2023-05-03T10:19:54;102504.47;;;16.51;42.26
29433;BME280;16405;53.964;13.448;2023-05-03T10:22:22;102511.78;;;16.46;42.99
29433;BME280;16405;53.964;13.448;2023-05-03T10:30:40;102490.09;;;15.70;43.60
29433;BME280;16405;53.964;13.448;2023-05-03T10:35:54;102493.19;;;15.59;45.82
29433;BME280;16405;53.964;13.448;2023-05-03T10:38:27;102483.28;;;14.94;46.59
29433;BME280;16405;53.964;13.448;2023-05-03T10:40:55;102470.66;;;14.77;46.67
29433;BME280;16405;53.964;13.448;2023-05-03T10:46:07;102475.66;;;15.10;46.88
29433;BME280;16405;53.964;13.448;2023-05-03T10:48:34;102467.78;;;14.83;44.43
29433;BME280;16405;53.964;13.448;2023-05-03T10:53:58;102453.69;;;14.81;46.49
29433;BME280;16405;53.964;13.448;2023-05-03T10:56:29;102459.59;;;15.13;47.86
29433;BME280;16405;53.964;13.448;2023-05-03T10:58:55;102461.31;;;15.14;45.82
29433;BME280;16405;53.964;13.448;2023-05-03T11:01:25;102449.69;;;14.71;45.56
29433;BME280;16405;53.964;13.448;2023-05-03T11:04:17;102446.78;;;14.27;45.52
29433;BME280;16405;53.964;13.448;2023-05-03T11:06:47;102453.88;;;14.51;45.32
29433;BME280;16405;53.964;13.448;2023-05-03T11:09:16;102456.25;;;14.84;44.73
29433;BME280;16405;53.964;13.448;2023-05-03T11:11:45;102462.63;;;15.49;45.86
29433;BME280;16405;53.964;13.448;2023-05-03T11:14:16;102461.84;;;16.12;45.44
29433;BME280;16405;53.964;13.448;2023-05-03T11:16:46;102468.94;;;16.73;44.09
29433;BME280;16405;53.964;13.448;2023-05-03T11:19:15;102470.94;;;16.88;43.91
29433;BME280;16405;53.964;13.448;2023-05-03T11:21:42;102470.03;;;16.28;44.83
29433;BME280;16405;53.964;13.448;2023-05-03T11:24:14;102472.34;;;15.72;45.84
29433;BME280;16405;53.964;13.448;2023-05-03T11:26:40;102468.50;;;15.79;46.51
29433;BME280;16405;53.964;13.448;2023-05-03T11:29:09;102469.88;;;15.90;45.19
29433;BME280;16405;53.964;13.448;2023-05-03T11:31:37;102469.06;;;15.88;45.78
29433;BME280;16405;53.964;13.448;2023-05-03T11:34:11;102467.44;;;16.06;46.02
29433;BME280;16405;53.964;13.448;2023-05-03T11:36:40;102464.38;;;16.15;45.77
29433;BME280;16405;53.964;13.448;2023-05-03T11:39:06;102464.03;;;16.64;45.10
29433;BME280;16405;53.964;13.448;2023-05-03T11:41:36;102468.66;;;16.99;44.54
29433;BME280;16405;53.964;13.448;2023-05-03T11:44:03;102474.84;;;17.00;43.62
29433;BME280;16405;53.964;13.448;2023-05-03T11:46:36;102473.09;;;16.80;43.53
29433;BME280;16405;53.964;13.448;2023-05-03T11:49:06;102469.00;;;16.71;42.95
29433;BME280;16405;53.964;13.448;2023-05-03T11:51:32;102461.97;;;16.70;45.50
29433;BME280;16405;53.964;13.448;2023-05-03T11:54:03;102458.81;;;16.21;45.08
29433;BME280;16405;53.964;13.448;2023-05-03T11:56:31;102461.91;;;16.10;44.15
29433;BME280;16405;53.964;13.448;2023-05-03T11:58:57;102460.16;;;15.67;43.98
29433;BME280;16405;53.964;13.448;2023-05-03T12:01:31;102457.09;;;15.77;45.58
29433;BME280;16405;53.964;13.448;2023-05-03T12:04:02;102457.28;;;16.36;44.03
29433;BME280;16405;53.964;13.448;2023-05-03T12:06:33;102457.06;;;16.61;44.01
29433;BME280;16405;53.964;13.448;2023-05-03T12:09:00;102471.09;;;16.85;43.89
29433;BME280;16405;53.964;13.448;2023-05-03T12:11:26;102470.03;;;16.89;42.59
29433;BME280;16405;53.964;13.448;2023-05-03T12:14:01;102464.63;;;16.70;42.76
29433;BME280;16405;53.964;13.448;2023-05-03T12:16:28;102449.91;;;16.22;44.86
29433;BME280;16405;53.964;13.448;2023-05-03T12:19:10;102452.63;;;16.20;45.30
29433;BME280;16405;53.964;13.448;2023-05-03T12:21:44;102450.31;;;16.33;43.81
29433;BME280;16405;53.964;13.448;2023-05-03T12:24:10;102454.91;;;16.50;44.17
29433;BME280;16405;53.964;13.448;2023-05-03T12:26:36;102457.47;;;16.52;43.64
29433;BME280;16405;53.964;13.448;2023-05-03T12:29:04;102455.50;;;16.16;44.56
29433;BME280;16405;53.964;13.448;2023-05-03T12:31:29;102452.78;;;15.95;43.81
29433;BME280;16405;53.964;13.448;2023-05-03T12:33:55;102453.75;;;15.72;44.81
29433;BME280;16405;53.964;13.448;2023-05-03T12:36:21;102455.81;;;15.64;45.59
29433;BME280;16405;53.964;13.448;2023-05-03T12:38:47;102458.25;;;15.70;44.88
29433;BME280;16405;53.964;13.448;2023-05-03T12:41:15;102454.53;;;15.96;44.37
29433;BME280;16405;53.964;13.448;2023-05-03T12:43:41;102457.50;;;15.89;44.06
29433;BME280;16405;53.964;13.448;2023-05-03T12:46:07;102457.16;;;15.52;42.75
29433;BME280;16405;53.964;13.448;2023-05-03T12:48:33;102450.81;;;15.11;42.59
29433;BME280;16405;53.964;13.448;2023-05-03T12:50:59;102446.44;;;15.33;43.77
29433;BME280;16405;53.964;13.448;2023-05-03T12:53:25;102441.81;;;15.83;44.73
29433;BME280;16405;53.964;13.448;2023-05-03T12:55:51;102438.47;;;16.20;45.10
29433;BME280;16405;53.964;13.448;2023-05-03T12:58:17;102441.38;;;16.55;42.95
29433;BME280;16405;53.964;13.448;2023-05-03T13:00:44;102452.09;;;16.53;45.23
29433;BME280;16405;53.964;13.448;2023-05-03T13:03:10;102447.50;;;16.36;44.34
29433;BME280;16405;53.964;13.448;2023-05-03T13:05:37;102441.59;;;16.50;43.59
29433;BME280;16405;53.964;13.448;2023-05-03T13:08:03;102440.66;;;16.51;42.49
29433;BME280;16405;53.964;13.448;2023-05-03T13:10:28;102439.63;;;16.35;43.30
29433;BME280;16405;53.964;13.448;2023-05-03T13:12:54;102425.63;;;15.89;45.23
29433;BME280;16405;53.964;13.448;2023-05-03T13:15:22;102429.72;;;15.75;44.10
29433;BME280;16405;53.964;13.448;2023-05-03T13:17:51;102429.47;;;15.59;44.32
29433;BME280;16405;53.964;13.448;2023-05-03T13:20:19;102429.13;;;15.67;44.26